sensor_id;sensor_type;location;lat;lon;timestamp;P1;durP1;ratioP1;P2;durP2;ratioP2
59555;SDS011;45374;52.746;6.304;2023-04-09T00:01:09;97.20;;;45.72;;
59555;SDS011;45374;52.746;6.304;2023-04-09T00:03:36;96.43;;;44.42;;
59555;SDS011;45374;52.746;6.304;2023-04-09T00:06:02;93.80;;;45.05;;
59555;SDS011;45374;52.746;6.304;2023-04-09T00:08:45;98.45;;;44.00;;
59555;SDS011;45374;52.746;6.304;2023-04-09T00:11:10;96.47;;;44.63;;
59555;SDS011;45374;52.746;6.304;2023-04-09T00:13:36;100.03;;;45.17;;
59555;SDS011;45374;52.746;6.304;2023-04-09T00:16:01;96.40;;;45.40;;
59555;SDS011;45374;52.746;6.304;2023-04-09T00:18:27;91.82;;;44.55;;
59555;SDS011;45374;52.746;6.304;2023-04-09T00:20:52;97.15;;;44.10;;
59555;SDS011;45374;52.746;6.304;2023-04-09T00:23:18;94.90;;;45.22;;
59555;SDS011;45374;52.746;6.304;2023-04-09T00:25:44;93.55;;;43.03;;
59555;SDS011;45374;52.746;6.304;2023-04-09T00:28:12;93.82;;;43.45;;
59555;SDS011;45374;52.746;6.304;2023-04-09T00:30:39;94.20;;;46.03;;
59555;SDS011;45374;52.746;6.304;2023-04-09T00:33:05;96.25;;;45.05;;
59555;SDS011;45374;52.746;6.304;2023-04-09T00:35:30;99.72;;;45.15;;
59555;SDS011;45374;52.746;6.304;2023-04-09T00:37:56;95.88;;;46.03;;
59555;SDS011;45374;52.746;6.304;2023-04-09T00:40:21;92.85;;;44.83;;
59555;SDS011;45374;52.746;6.304;2023-04-09T00:42:47;95.82;;;46.10;;
59555;SDS011;45374;52.746;6.304;2023-04-09T00:45:12;91.95;;;44.28;;
59555;SDS011;45374;52.746;6.304;2023-04-09T00:47:38;89.60;;;44.05;;
59555;SDS011;45374;52.746;6.304;2023-04-09T00:50:04;84.70;;;42.15;;
59555;SDS011;45374;52.746;6.304;2023-04-09T00:52:32;90.40;;;44.40;;
59555;SDS011;45374;52.746;6.304;2023-04-09T00:54:58;86.05;;;42.47;;
59555;SDS011;45374;52.746;6.304;2023-04-09T00:57:25;84.18;;;41.78;;
59555;SDS011;45374;52.746;6.304;2023-04-09T00:59:52;88.78;;;43.08;;
59555;SDS011;45374;52.746;6.304;2023-04-09T01:02:18;88.03;;;42.25;;
59555;SDS011;45374;52.746;6.304;2023-04-09T01:04:44;81.47;;;40.78;;
59555;SDS011;45374;52.746;6.304;2023-04-09T01:09:49;82.28;;;39.70;;
59555;SDS011;45374;52.746;6.304;2023-04-09T01:15:20;80.35;;;39.40;;
59555;SDS011;45374;52.746;6.304;2023-04-09T01:18:10;79.38;;;38.88;;
59555;SDS011;45374;52.746;6.304;2023-04-09T01:20:47;81.32;;;38.90;;
59555;SDS011;45374;52.746;6.304;2023-04-09T01:23:28;84.82;;;40.35;;
59555;SDS011;45374;52.746;6.304;2023-04-09T01:26:15;78.53;;;37.55;;
59555;SDS011;45374;52.746;6.304;2023-04-09T01:29:00;84.47;;;37.67;;
59555;SDS011;45374;52.746;6.304;2023-04-09T01:31:30;83.70;;;38.60;;
59555;SDS011;45374;52.746;6.304;2023-04-09T01:33:58;82.03;;;38.03;;
59555;SDS011;45374;52.746;6.304;2023-04-09T01:36:25;77.13;;;37.42;;
59555;SDS011;45374;52.746;6.304;2023-04-09T01:38:52;74.53;;;35.80;;
59555;SDS011;45374;52.746;6.304;2023-04-09T01:41:20;72.22;;;33.35;;
59555;SDS011;45374;52.746;6.304;2023-04-09T01:43:50;66.00;;;32.80;;
59555;SDS011;45374;52.746;6.304;2023-04-09T01:46:20;65.95;;;32.75;;
59555;SDS011;45374;52.746;6.304;2023-04-09T01:48:46;67.28;;;34.05;;
59555;SDS011;45374;52.746;6.304;2023-04-09T01:51:13;68.75;;;33.53;;
59555;SDS011;45374;52.746;6.304;2023-04-09T01:53:39;69.15;;;33.03;;
59555;SDS011;45374;52.746;6.304;2023-04-09T01:56:05;70.43;;;33.22;;
59555;SDS011;45374;52.746;6.304;2023-04-09T01:58:32;61.47;;;31.77;;
59555;SDS011;45374;52.746;6.304;2023-04-09T02:01:00;58.17;;;29.55;;
59555;SDS011;45374;52.746;6.304;2023-04-09T02:03:56;59.60;;;29.77;;
59555;SDS011;45374;52.746;6.304;2023-04-09T02:09:03;59.13;;;29.48;;
59555;SDS011;45374;52.746;6.304;2023-04-09T02:11:32;59.78;;;29.95;;
59555;SDS011;45374;52.746;6.304;2023-04-09T02:14:01;60.83;;;29.02;;
59555;SDS011;45374;52.746;6.304;2023-04-09T02:16:28;57.85;;;29.00;;
59555;SDS011;45374;52.746;6.304;2023-04-09T02:18:55;57.97;;;30.25;;
59555;SDS011;45374;52.746;6.304;2023-04-09T02:21:22;57.75;;;28.67;;
59555;SDS011;45374;52.746;6.304;2023-04-09T02:23:48;61.78;;;29.35;;
59555;SDS011;45374;52.746;6.304;2023-04-09T02:26:14;60.80;;;28.65;;
59555;SDS011;45374;52.746;6.304;2023-04-09T02:28:40;55.15;;;28.63;;
59555;SDS011;45374;52.746;6.304;2023-04-09T02:31:05;57.78;;;28.40;;
59555;SDS011;45374;52.746;6.304;2023-04-09T02:33:31;57.13;;;29.13;;
59555;SDS011;45374;52.746;6.304;2023-04-09T02:35:56;63.10;;;30.45;;
59555;SDS011;45374;52.746;6.304;2023-04-09T02:38:22;60.20;;;28.80;;
59555;SDS011;45374;52.746;6.304;2023-04-09T02:40:48;60.03;;;28.73;;
59555;SDS011;45374;52.746;6.304;2023-04-09T02:43:13;61.45;;;29.67;;
59555;SDS011;45374;52.746;6.304;2023-04-09T02:45:39;57.20;;;29.05;;
59555;SDS011;45374;52.746;6.304;2023-04-09T02:48:04;62.22;;;29.25;;
59555;SDS011;45374;52.746;6.304;2023-04-09T02:50:30;60.17;;;28.52;;
59555;SDS011;45374;52.746;6.304;2023-04-09T02:52:55;64.32;;;29.45;;
59555;SDS011;45374;52.746;6.304;2023-04-09T02:55:21;60.63;;;29.40;;
59555;SDS011;45374;52.746;6.304;2023-04-09T02:57:47;59.90;;;29.05;;
59555;SDS011;45374;52.746;6.304;2023-04-09T03:00:12;55.95;;;28.42;;
59555;SDS011;45374;52.746;6.304;2023-04-09T03:02:38;58.42;;;29.42;;
59555;SDS011;45374;52.746;6.304;2023-04-09T03:05:04;60.45;;;28.75;;
59555;SDS011;45374;52.746;6.304;2023-04-09T03:07:30;58.08;;;28.30;;
59555;SDS011;45374;52.746;6.304;2023-04-09T03:09:57;59.33;;;29.00;;
59555;SDS011;45374;52.746;6.304;2023-04-09T03:12:23;60.10;;;28.70;;
59555;SDS011;45374;52.746;6.304;2023-04-09T03:14:48;59.85;;;28.10;;
59555;SDS011;45374;52.746;6.304;2023-04-09T03:17:14;65.13;;;29.73;;
59555;SDS011;45374;52.746;6.304;2023-04-09T03:19:40;62.63;;;28.08;;
59555;SDS011;45374;52.746;6.304;2023-04-09T03:22:05;60.85;;;28.70;;
59555;SDS011;45374;52.746;6.304;2023-04-09T03:24:31;59.05;;;29.85;;
59555;SDS011;45374;52.746;6.304;2023-04-09T03:26:57;60.00;;;29.17;;
59555;SDS011;45374;52.746;6.304;2023-04-09T03:29:24;65.00;;;29.48;;
59555;SDS011;45374;52.746;6.304;2023-04-09T03:31:50;60.63;;;29.67;;
59555;SDS011;45374;52.746;6.304;2023-04-09T03:34:15;66.88;;;30.40;;
59555;SDS011;45374;52.746;6.304;2023-04-09T03:36:41;68.32;;;32.20;;
59555;SDS011;45374;52.746;6.304;2023-04-09T03:39:06;61.22;;;29.67;;
59555;SDS011;45374;52.746;6.304;2023-04-09T03:41:32;59.33;;;30.13;;
59555;SDS011;45374;52.746;6.304;2023-04-09T03:43:57;63.25;;;30.40;;
59555;SDS011;45374;52.746;6.304;2023-04-09T03:46:23;64.78;;;30.27;;
59555;SDS011;45374;52.746;6.304;2023-04-09T03:48:49;61.40;;;29.88;;
59555;SDS011;45374;52.746;6.304;2023-04-09T03:51:15;64.20;;;29.92;;
59555;SDS011;45374;52.746;6.304;2023-04-09T03:53:41;65.30;;;30.70;;
59555;SDS011;45374;52.746;6.304;2023-04-09T03:56:08;61.65;;;30.33;;
59555;SDS011;45374;52.746;6.304;2023-04-09T03:58:34;63.17;;;30.58;;
59555;SDS011;45374;52.746;6.304;2023-04-09T04:01:00;63.17;;;30.92;;
59555;SDS011;45374;52.746;6.304;2023-04-09T04:03:25;66.38;;;31.17;;
59555;SDS011;45374;52.746;6.304;2023-04-09T04:05:51;62.58;;;30.73;;
59555;SDS011;45374;52.746;6.304;2023-04-09T04:08:17;68.13;;;31.27;;
59555;SDS011;45374;52.746;6.304;2023-04-09T04:10:42;66.97;;;31.33;;
59555;SDS011;45374;52.746;6.304;2023-04-09T04:13:08;69.07;;;32.45;;
59555;SDS011;45374;52.746;6.304;2023-04-09T04:15:40;68.43;;;30.98;;
59555;SDS011;45374;52.746;6.304;2023-04-09T04:18:06;66.70;;;32.20;;
59555;SDS011;45374;52.746;6.304;2023-04-09T04:20:32;64.00;;;30.52;;
59555;SDS011;45374;52.746;6.304;2023-04-09T04:22:58;63.10;;;30.95;;
59555;SDS011;45374;52.746;6.304;2023-04-09T04:25:24;67.28;;;31.17;;
59555;SDS011;45374;52.746;6.304;2023-04-09T04:27:49;68.10;;;32.25;;
59555;SDS011;45374;52.746;6.304;2023-04-09T04:30:15;68.57;;;32.58;;
59555;SDS011;45374;52.746;6.304;2023-04-09T04:32:40;66.00;;;30.88;;
59555;SDS011;45374;52.746;6.304;2023-04-09T04:35:06;66.50;;;32.28;;
59555;SDS011;45374;52.746;6.304;2023-04-09T04:37:32;65.20;;;31.50;;
59555;SDS011;45374;52.746;6.304;2023-04-09T04:39:59;66.20;;;32.65;;
59555;SDS011;45374;52.746;6.304;2023-04-09T04:42:25;65.65;;;30.85;;
59555;SDS011;45374;52.746;6.304;2023-04-09T04:44:51;69.50;;;33.83;;
59555;SDS011;45374;52.746;6.304;2023-04-09T04:47:17;60.88;;;31.38;;
59555;SDS011;45374;52.746;6.304;2023-04-09T04:49:43;65.70;;;32.08;;
59555;SDS011;45374;52.746;6.304;2023-04-09T04:52:09;64.53;;;31.40;;
59555;SDS011;45374;52.746;6.304;2023-04-09T04:54:34;64.20;;;32.10;;
59555;SDS011;45374;52.746;6.304;2023-04-09T04:57:00;68.50;;;31.60;;
59555;SDS011;45374;52.746;6.304;2023-04-09T04:59:26;62.97;;;31.70;;
59555;SDS011;45374;52.746;6.304;2023-04-09T05:01:52;61.55;;;31.90;;
59555;SDS011;45374;52.746;6.304;2023-04-09T05:04:18;62.83;;;30.88;;
59555;SDS011;45374;52.746;6.304;2023-04-09T05:06:43;62.83;;;31.05;;
59555;SDS011;45374;52.746;6.304;2023-04-09T05:09:09;62.25;;;31.35;;
59555;SDS011;45374;52.746;6.304;2023-04-09T05:11:35;65.75;;;31.60;;
59555;SDS011;45374;52.746;6.304;2023-04-09T05:14:00;60.42;;;31.63;;
59555;SDS011;45374;52.746;6.304;2023-04-09T05:16:26;66.28;;;32.35;;
59555;SDS011;45374;52.746;6.304;2023-04-09T05:18:51;64.93;;;30.52;;
59555;SDS011;45374;52.746;6.304;2023-04-09T05:21:17;69.13;;;32.50;;
59555;SDS011;45374;52.746;6.304;2023-04-09T05:23:42;62.50;;;31.65;;
59555;SDS011;45374;52.746;6.304;2023-04-09T05:26:08;65.53;;;31.23;;
59555;SDS011;45374;52.746;6.304;2023-04-09T05:28:33;68.88;;;32.17;;
59555;SDS011;45374;52.746;6.304;2023-04-09T05:30:59;64.97;;;31.00;;
59555;SDS011;45374;52.746;6.304;2023-04-09T05:33:24;66.07;;;31.65;;
59555;SDS011;45374;52.746;6.304;2023-04-09T05:35:50;59.03;;;30.98;;
59555;SDS011;45374;52.746;6.304;2023-04-09T05:38:15;65.30;;;31.98;;
59555;SDS011;45374;52.746;6.304;2023-04-09T05:40:41;61.83;;;31.58;;
59555;SDS011;45374;52.746;6.304;2023-04-09T05:43:08;62.40;;;30.60;;
59555;SDS011;45374;52.746;6.304;2023-04-09T05:48:21;61.28;;;29.85;;
59555;SDS011;45374;52.746;6.304;2023-04-09T05:50:50;57.33;;;28.88;;
59555;SDS011;45374;52.746;6.304;2023-04-09T05:53:19;60.08;;;30.50;;
59555;SDS011;45374;52.746;6.304;2023-04-09T05:55:45;60.40;;;31.10;;
59555;SDS011;45374;52.746;6.304;2023-04-09T05:58:13;63.33;;;31.40;;
59555;SDS011;45374;52.746;6.304;2023-04-09T06:00:39;62.65;;;31.77;;
59555;SDS011;45374;52.746;6.304;2023-04-09T06:03:05;67.68;;;32.63;;
59555;SDS011;45374;52.746;6.304;2023-04-09T06:05:31;65.10;;;31.65;;
59555;SDS011;45374;52.746;6.304;2023-04-09T06:07:56;67.18;;;30.63;;
59555;SDS011;45374;52.746;6.304;2023-04-09T06:10:22;59.97;;;30.08;;
59555;SDS011;45374;52.746;6.304;2023-04-09T06:12:48;55.50;;;29.02;;
59555;SDS011;45374;52.746;6.304;2023-04-09T06:15:14;61.53;;;31.08;;
59555;SDS011;45374;52.746;6.304;2023-04-09T06:17:39;60.42;;;30.33;;
59555;SDS011;45374;52.746;6.304;2023-04-09T06:20:05;56.42;;;28.92;;
59555;SDS011;45374;52.746;6.304;2023-04-09T06:22:31;54.15;;;28.17;;
59555;SDS011;45374;52.746;6.304;2023-04-09T06:24:56;53.63;;;28.08;;
59555;SDS011;45374;52.746;6.304;2023-04-09T06:27:22;55.30;;;28.17;;
59555;SDS011;45374;52.746;6.304;2023-04-09T06:29:48;53.58;;;28.27;;
59555;SDS011;45374;52.746;6.304;2023-04-09T06:32:14;51.50;;;27.90;;
59555;SDS011;45374;52.746;6.304;2023-04-09T06:34:40;53.53;;;27.85;;
59555;SDS011;45374;52.746;6.304;2023-04-09T06:37:05;53.78;;;28.10;;
59555;SDS011;45374;52.746;6.304;2023-04-09T06:39:31;52.25;;;27.33;;
59555;SDS011;45374;52.746;6.304;2023-04-09T06:41:57;48.55;;;27.00;;
59555;SDS011;45374;52.746;6.304;2023-04-09T06:44:22;53.00;;;28.33;;
59555;SDS011;45374;52.746;6.304;2023-04-09T06:46:48;54.13;;;28.02;;
59555;SDS011;45374;52.746;6.304;2023-04-09T06:49:14;50.30;;;27.33;;
59555;SDS011;45374;52.746;6.304;2023-04-09T06:51:53;54.13;;;28.02;;
59555;SDS011;45374;52.746;6.304;2023-04-09T06:54:18;52.88;;;27.98;;
59555;SDS011;45374;52.746;6.304;2023-04-09T06:56:44;51.00;;;27.23;;
59555;SDS011;45374;52.746;6.304;2023-04-09T06:59:10;54.13;;;28.65;;
59555;SDS011;45374;52.746;6.304;2023-04-09T07:01:36;53.38;;;29.10;;
59555;SDS011;45374;52.746;6.304;2023-04-09T07:04:02;52.90;;;29.33;;
59555;SDS011;45374;52.746;6.304;2023-04-09T07:06:28;54.55;;;28.92;;
59555;SDS011;45374;52.746;6.304;2023-04-09T07:08:53;56.22;;;30.08;;
59555;SDS011;45374;52.746;6.304;2023-04-09T07:11:19;53.70;;;29.55;;
59555;SDS011;45374;52.746;6.304;2023-04-09T07:13:45;50.92;;;28.58;;
59555;SDS011;45374;52.746;6.304;2023-04-09T07:16:11;54.28;;;28.42;;
59555;SDS011;45374;52.746;6.304;2023-04-09T07:18:36;49.67;;;27.48;;
59555;SDS011;45374;52.746;6.304;2023-04-09T07:21:02;50.30;;;27.73;;
59555;SDS011;45374;52.746;6.304;2023-04-09T07:23:27;52.03;;;29.25;;
59555;SDS011;45374;52.746;6.304;2023-04-09T07:25:53;50.85;;;28.30;;
59555;SDS011;45374;52.746;6.304;2023-04-09T07:28:20;50.20;;;28.20;;
59555;SDS011;45374;52.746;6.304;2023-04-09T07:30:46;48.25;;;27.33;;
59555;SDS011;45374;52.746;6.304;2023-04-09T07:33:11;48.50;;;26.58;;
59555;SDS011;45374;52.746;6.304;2023-04-09T07:35:37;47.85;;;26.95;;
59555;SDS011;45374;52.746;6.304;2023-04-09T07:38:02;46.33;;;26.00;;
59555;SDS011;45374;52.746;6.304;2023-04-09T07:40:28;47.28;;;25.48;;
59555;SDS011;45374;52.746;6.304;2023-04-09T07:42:53;46.38;;;25.73;;
59555;SDS011;45374;52.746;6.304;2023-04-09T07:45:19;45.85;;;26.42;;
59555;SDS011;45374;52.746;6.304;2023-04-09T07:47:45;48.58;;;27.00;;
59555;SDS011;45374;52.746;6.304;2023-04-09T07:50:11;51.08;;;28.65;;
59555;SDS011;45374;52.746;6.304;2023-04-09T07:52:36;47.72;;;25.73;;
59555;SDS011;45374;52.746;6.304;2023-04-09T07:55:02;52.63;;;28.05;;
59555;SDS011;45374;52.746;6.304;2023-04-09T07:57:31;49.42;;;28.50;;
59555;SDS011;45374;52.746;6.304;2023-04-09T07:59:57;47.65;;;26.23;;
59555;SDS011;45374;52.746;6.304;2023-04-09T08:02:22;47.00;;;26.92;;
59555;SDS011;45374;52.746;6.304;2023-04-09T08:04:48;45.45;;;27.40;;
59555;SDS011;45374;52.746;6.304;2023-04-09T08:07:14;44.17;;;25.42;;
59555;SDS011;45374;52.746;6.304;2023-04-09T08:09:40;47.85;;;26.33;;
59555;SDS011;45374;52.746;6.304;2023-04-09T08:12:05;43.95;;;25.55;;
59555;SDS011;45374;52.746;6.304;2023-04-09T08:14:31;44.38;;;25.17;;
59555;SDS011;45374;52.746;6.304;2023-04-09T08:16:56;41.33;;;24.42;;
59555;SDS011;45374;52.746;6.304;2023-04-09T08:19:23;45.03;;;26.17;;
59555;SDS011;45374;52.746;6.304;2023-04-09T08:21:49;42.20;;;24.83;;
59555;SDS011;45374;52.746;6.304;2023-04-09T08:24:16;41.13;;;24.70;;
59555;SDS011;45374;52.746;6.304;2023-04-09T08:26:42;45.00;;;26.58;;
59555;SDS011;45374;52.746;6.304;2023-04-09T08:29:09;44.55;;;26.00;;
59555;SDS011;45374;52.746;6.304;2023-04-09T08:31:36;44.10;;;26.08;;
59555;SDS011;45374;52.746;6.304;2023-04-09T08:34:02;44.63;;;26.40;;
59555;SDS011;45374;52.746;6.304;2023-04-09T08:36:28;45.90;;;25.38;;
59555;SDS011;45374;52.746;6.304;2023-04-09T08:38:54;42.58;;;24.58;;
59555;SDS011;45374;52.746;6.304;2023-04-09T08:41:21;42.95;;;24.98;;
59555;SDS011;45374;52.746;6.304;2023-04-09T08:43:53;41.97;;;24.65;;
59555;SDS011;45374;52.746;6.304;2023-04-09T08:46:20;42.03;;;25.70;;
59555;SDS011;45374;52.746;6.304;2023-04-09T08:48:46;41.70;;;25.17;;
59555;SDS011;45374;52.746;6.304;2023-04-09T08:51:13;43.47;;;25.77;;
59555;SDS011;45374;52.746;6.304;2023-04-09T08:53:44;41.05;;;25.20;;
59555;SDS011;45374;52.746;6.304;2023-04-09T08:56:11;45.13;;;25.83;;
59555;SDS011;45374;52.746;6.304;2023-04-09T08:58:39;45.00;;;25.95;;
59555;SDS011;45374;52.746;6.304;2023-04-09T09:06:37;43.00;;;25.95;;
59555;SDS011;45374;52.746;6.304;2023-04-09T09:09:09;42.30;;;26.45;;
59555;SDS011;45374;52.746;6.304;2023-04-09T09:11:35;44.60;;;27.02;;
59555;SDS011;45374;52.746;6.304;2023-04-09T09:14:06;41.53;;;25.40;;
59555;SDS011;45374;52.746;6.304;2023-04-09T09:16:34;42.70;;;25.75;;
59555;SDS011;45374;52.746;6.304;2023-04-09T09:19:04;44.42;;;25.65;;
59555;SDS011;45374;52.746;6.304;2023-04-09T09:21:30;41.20;;;24.80;;
59555;SDS011;45374;52.746;6.304;2023-04-09T09:23:57;40.75;;;25.63;;
59555;SDS011;45374;52.746;6.304;2023-04-09T09:26:24;44.22;;;26.17;;
59555;SDS011;45374;52.746;6.304;2023-04-09T09:28:51;43.25;;;26.23;;
59555;SDS011;45374;52.746;6.304;2023-04-09T09:31:18;41.38;;;25.45;;
59555;SDS011;45374;52.746;6.304;2023-04-09T09:33:44;41.05;;;24.80;;
59555;SDS011;45374;52.746;6.304;2023-04-09T09:36:10;40.60;;;23.83;;
59555;SDS011;45374;52.746;6.304;2023-04-09T09:38:50;42.90;;;25.15;;
59555;SDS011;45374;52.746;6.304;2023-04-09T09:41:17;38.28;;;23.90;;
59555;SDS011;45374;52.746;6.304;2023-04-09T09:43:43;41.63;;;24.77;;
59555;SDS011;45374;52.746;6.304;2023-04-09T09:46:10;40.50;;;24.67;;
59555;SDS011;45374;52.746;6.304;2023-04-09T09:48:36;39.47;;;24.13;;
59555;SDS011;45374;52.746;6.304;2023-04-09T09:51:05;37.47;;;23.50;;
59555;SDS011;45374;52.746;6.304;2023-04-09T09:53:37;38.63;;;23.60;;
59555;SDS011;45374;52.746;6.304;2023-04-09T09:56:17;38.55;;;24.02;;
59555;SDS011;45374;52.746;6.304;2023-04-09T09:58:52;35.65;;;21.58;;
59555;SDS011;45374;52.746;6.304;2023-04-09T10:01:25;35.50;;;21.30;;
59555;SDS011;45374;52.746;6.304;2023-04-09T10:03:52;35.88;;;21.63;;
59555;SDS011;45374;52.746;6.304;2023-04-09T10:06:20;37.03;;;22.55;;
59555;SDS011;45374;52.746;6.304;2023-04-09T10:08:46;36.25;;;21.13;;
59555;SDS011;45374;52.746;6.304;2023-04-09T10:11:13;35.80;;;22.35;;
59555;SDS011;45374;52.746;6.304;2023-04-09T10:13:40;34.95;;;21.17;;
59555;SDS011;45374;52.746;6.304;2023-04-09T10:16:10;34.67;;;21.80;;
59555;SDS011;45374;52.746;6.304;2023-04-09T10:18:36;34.60;;;22.00;;
59555;SDS011;45374;52.746;6.304;2023-04-09T10:23:39;35.20;;;22.38;;
59555;SDS011;45374;52.746;6.304;2023-04-09T10:26:07;36.53;;;23.08;;
59555;SDS011;45374;52.746;6.304;2023-04-09T10:28:32;38.92;;;23.13;;
59555;SDS011;45374;52.746;6.304;2023-04-09T10:30:58;37.15;;;23.67;;
59555;SDS011;45374;52.746;6.304;2023-04-09T10:33:25;36.00;;;21.80;;
59555;SDS011;45374;52.746;6.304;2023-04-09T10:35:58;35.22;;;22.00;;
59555;SDS011;45374;52.746;6.304;2023-04-09T10:38:58;35.45;;;22.65;;
59555;SDS011;45374;52.746;6.304;2023-04-09T10:41:21;36.83;;;23.60;;
59555;SDS011;45374;52.746;6.304;2023-04-09T10:43:47;38.08;;;23.63;;
59555;SDS011;45374;52.746;6.304;2023-04-09T10:46:29;34.70;;;22.65;;
59555;SDS011;45374;52.746;6.304;2023-04-09T10:49:34;34.58;;;22.35;;
59555;SDS011;45374;52.746;6.304;2023-04-09T10:52:03;35.53;;;22.50;;
59555;SDS011;45374;52.746;6.304;2023-04-09T11:05:17;37.25;;;23.38;;
59555;SDS011;45374;52.746;6.304;2023-04-09T11:08:26;35.70;;;22.55;;
59555;SDS011;45374;52.746;6.304;2023-04-09T11:10:42;37.67;;;22.60;;
59555;SDS011;45374;52.746;6.304;2023-04-09T11:13:15;35.78;;;23.10;;
59555;SDS011;45374;52.746;6.304;2023-04-09T11:15:42;38.30;;;24.30;;
59555;SDS011;45374;52.746;6.304;2023-04-09T11:18:12;36.75;;;23.33;;
59555;SDS011;45374;52.746;6.304;2023-04-09T11:20:39;33.92;;;22.77;;
59555;SDS011;45374;52.746;6.304;2023-04-09T11:23:05;36.38;;;22.92;;
59555;SDS011;45374;52.746;6.304;2023-04-09T11:25:31;35.35;;;23.35;;
59555;SDS011;45374;52.746;6.304;2023-04-09T11:27:58;34.78;;;23.38;;
59555;SDS011;45374;52.746;6.304;2023-04-09T11:30:24;34.33;;;22.83;;
59555;SDS011;45374;52.746;6.304;2023-04-09T11:32:50;32.97;;;21.83;;
59555;SDS011;45374;52.746;6.304;2023-04-09T11:35:19;33.80;;;21.52;;
59555;SDS011;45374;52.746;6.304;2023-04-09T11:37:46;33.40;;;21.08;;
59555;SDS011;45374;52.746;6.304;2023-04-09T11:40:13;32.17;;;21.25;;
59555;SDS011;45374;52.746;6.304;2023-04-09T11:42:41;29.13;;;21.27;;
59555;SDS011;45374;52.746;6.304;2023-04-09T11:45:08;30.50;;;21.30;;
59555;SDS011;45374;52.746;6.304;2023-04-09T11:47:35;30.60;;;21.35;;
59555;SDS011;45374;52.746;6.304;2023-04-09T11:50:00;31.80;;;21.50;;
59555;SDS011;45374;52.746;6.304;2023-04-09T11:52:26;31.83;;;20.98;;
59555;SDS011;45374;52.746;6.304;2023-04-09T11:54:58;30.35;;;20.85;;
59555;SDS011;45374;52.746;6.304;2023-04-09T11:57:25;29.92;;;20.80;;
59555;SDS011;45374;52.746;6.304;2023-04-09T12:00:10;25.60;;;17.60;;
59555;SDS011;45374;52.746;6.304;2023-04-09T12:02:37;24.00;;;16.65;;
59555;SDS011;45374;52.746;6.304;2023-04-09T12:05:04;25.35;;;17.20;;
59555;SDS011;45374;52.746;6.304;2023-04-09T12:07:32;23.17;;;16.65;;
59555;SDS011;45374;52.746;6.304;2023-04-09T12:10:02;24.95;;;16.55;;
59555;SDS011;45374;52.746;6.304;2023-04-09T12:12:41;21.60;;;16.00;;
59555;SDS011;45374;52.746;6.304;2023-04-09T12:15:11;22.70;;;15.52;;
59555;SDS011;45374;52.746;6.304;2023-04-09T12:17:46;23.27;;;16.13;;
59555;SDS011;45374;52.746;6.304;2023-04-09T12:20:31;24.05;;;16.48;;
59555;SDS011;45374;52.746;6.304;2023-04-09T12:23:08;24.08;;;15.90;;
59555;SDS011;45374;52.746;6.304;2023-04-09T12:25:44;24.20;;;16.20;;
59555;SDS011;45374;52.746;6.304;2023-04-09T12:28:12;23.67;;;16.27;;
59555;SDS011;45374;52.746;6.304;2023-04-09T12:30:39;24.30;;;16.88;;
59555;SDS011;45374;52.746;6.304;2023-04-09T12:33:05;25.02;;;16.90;;
59555;SDS011;45374;52.746;6.304;2023-04-09T12:35:32;23.38;;;15.68;;
59555;SDS011;45374;52.746;6.304;2023-04-09T12:37:58;24.98;;;17.42;;
59555;SDS011;45374;52.746;6.304;2023-04-09T12:40:24;24.25;;;16.35;;
59555;SDS011;45374;52.746;6.304;2023-04-09T12:42:50;22.52;;;15.80;;
59555;SDS011;45374;52.746;6.304;2023-04-09T12:45:16;24.90;;;17.02;;
59555;SDS011;45374;52.746;6.304;2023-04-09T12:47:43;24.10;;;16.08;;
59555;SDS011;45374;52.746;6.304;2023-04-09T12:50:10;21.40;;;15.00;;
59555;SDS011;45374;52.746;6.304;2023-04-09T12:52:36;24.02;;;15.90;;
59555;SDS011;45374;52.746;6.304;2023-04-09T12:55:02;23.65;;;15.35;;
59555;SDS011;45374;52.746;6.304;2023-04-09T12:57:29;21.70;;;15.68;;
59555;SDS011;45374;52.746;6.304;2023-04-09T12:59:54;21.63;;;15.75;;
59555;SDS011;45374;52.746;6.304;2023-04-09T13:02:20;23.60;;;15.57;;
59555;SDS011;45374;52.746;6.304;2023-04-09T13:04:46;21.77;;;14.73;;
59555;SDS011;45374;52.746;6.304;2023-04-09T13:07:13;24.48;;;15.65;;
59555;SDS011;45374;52.746;6.304;2023-04-09T13:09:40;22.17;;;15.20;;
59555;SDS011;45374;52.746;6.304;2023-04-09T13:12:06;23.20;;;15.70;;
59555;SDS011;45374;52.746;6.304;2023-04-09T13:14:31;22.77;;;15.82;;
59555;SDS011;45374;52.746;6.304;2023-04-09T13:16:57;22.88;;;15.00;;
59555;SDS011;45374;52.746;6.304;2023-04-09T13:19:23;21.13;;;14.07;;
59555;SDS011;45374;52.746;6.304;2023-04-09T13:21:48;23.13;;;15.63;;
59555;SDS011;45374;52.746;6.304;2023-04-09T13:24:14;20.38;;;14.60;;
59555;SDS011;45374;52.746;6.304;2023-04-09T13:26:39;20.20;;;14.20;;
59555;SDS011;45374;52.746;6.304;2023-04-09T13:29:05;20.50;;;14.13;;
59555;SDS011;45374;52.746;6.304;2023-04-09T13:31:33;22.23;;;14.80;;
59555;SDS011;45374;52.746;6.304;2023-04-09T13:34:01;21.45;;;14.25;;
59555;SDS011;45374;52.746;6.304;2023-04-09T13:36:27;20.63;;;14.77;;
59555;SDS011;45374;52.746;6.304;2023-04-09T13:38:53;21.45;;;14.43;;
59555;SDS011;45374;52.746;6.304;2023-04-09T13:41:19;19.92;;;14.10;;
59555;SDS011;45374;52.746;6.304;2023-04-09T13:43:45;20.92;;;14.57;;
59555;SDS011;45374;52.746;6.304;2023-04-09T13:46:11;20.20;;;14.20;;
59555;SDS011;45374;52.746;6.304;2023-04-09T13:48:36;21.92;;;15.13;;
59555;SDS011;45374;52.746;6.304;2023-04-09T13:51:02;26.38;;;15.27;;
59555;SDS011;45374;52.746;6.304;2023-04-09T13:53:27;21.02;;;14.70;;
59555;SDS011;45374;52.746;6.304;2023-04-09T13:55:53;19.95;;;14.10;;
59555;SDS011;45374;52.746;6.304;2023-04-09T13:58:19;22.92;;;14.82;;
59555;SDS011;45374;52.746;6.304;2023-04-09T14:00:46;19.45;;;13.57;;
59555;SDS011;45374;52.746;6.304;2023-04-09T14:03:12;18.88;;;13.18;;
59555;SDS011;45374;52.746;6.304;2023-04-09T14:05:38;17.85;;;12.65;;
59555;SDS011;45374;52.746;6.304;2023-04-09T14:08:03;18.45;;;12.68;;
59555;SDS011;45374;52.746;6.304;2023-04-09T14:10:36;17.63;;;12.18;;
59555;SDS011;45374;52.746;6.304;2023-04-09T14:13:01;17.38;;;11.57;;
59555;SDS011;45374;52.746;6.304;2023-04-09T14:15:30;18.77;;;11.75;;
59555;SDS011;45374;52.746;6.304;2023-04-09T14:17:56;15.20;;;10.90;;
59555;SDS011;45374;52.746;6.304;2023-04-09T14:20:21;16.20;;;11.15;;
59555;SDS011;45374;52.746;6.304;2023-04-09T14:22:48;16.80;;;11.40;;
59555;SDS011;45374;52.746;6.304;2023-04-09T14:25:14;16.70;;;10.80;;
59555;SDS011;45374;52.746;6.304;2023-04-09T14:27:40;14.30;;;9.82;;
59555;SDS011;45374;52.746;6.304;2023-04-09T14:30:07;14.50;;;10.18;;
59555;SDS011;45374;52.746;6.304;2023-04-09T14:35:42;13.93;;;9.77;;
59555;SDS011;45374;52.746;6.304;2023-04-09T14:38:08;14.73;;;9.98;;
59555;SDS011;45374;52.746;6.304;2023-04-09T14:40:33;14.13;;;10.10;;
59555;SDS011;45374;52.746;6.304;2023-04-09T14:43:00;14.73;;;10.77;;
59555;SDS011;45374;52.746;6.304;2023-04-09T14:45:26;13.13;;;9.82;;
59555;SDS011;45374;52.746;6.304;2023-04-09T14:47:51;13.40;;;9.60;;
59555;SDS011;45374;52.746;6.304;2023-04-09T14:50:17;14.38;;;9.82;;
59555;SDS011;45374;52.746;6.304;2023-04-09T14:52:44;14.52;;;9.05;;
59555;SDS011;45374;52.746;6.304;2023-04-09T14:55:09;12.82;;;9.05;;